Time;durP1;ratioP1;P1;durP2;ratioP2;P2;SDS_P1;SDS_P2;PMS_P1;PMS_P2;Temp;Humidity;BMP_temperature;BMP_pressure;BME280_temperature;BME280_humidity;BME280_pressure;Samples;Min_cycle;Max_cycle;Signal;HPM_P1;HPM_P2
2022/03/04 00:00:09;;;;;;;3.13;2.90;;;0.80;99.90;;;;;;5011252;28;20687;-67
2022/03/04 00:02:35;;;;;;;4.13;2.57;;;0.80;99.90;;;;;;5012220;28;20634;-67
2022/03/04 00:05:01;;;;;;;4.13;2.90;;;0.80;99.90;;;;;;5011911;28;20419;-66
2022/03/04 00:07:26;;;;;;;2.70;2.03;;;0.80;99.90;;;;;;5012037;28;20814;-67
2022/03/04 00:09:52;;;;;;;3.23;2.57;;;0.80;99.90;;;;;;5012092;28;20173;-66
2022/03/04 00:12:17;;;;;;;2.93;2.60;;;0.80;99.90;;;;;;5011673;28;20200;-67
2022/03/04 00:14:43;;;;;;;1.87;1.77;;;0.90;99.90;;;;;;5011650;28;20227;-66
2022/03/04 00:17:08;;;;;;;2.93;2.73;;;0.90;99.90;;;;;;5011847;28;20188;-66
2022/03/04 00:19:33;;;;;;;4.43;3.63;;;0.80;99.90;;;;;;5011844;28;20255;-66
2022/03/04 00:21:59;;;;;;;1.70;1.60;;;0.80;99.90;;;;;;5011752;28;20192;-66
2022/03/04 00:24:25;;;;;;;2.33;2.23;;;0.90;99.90;;;;;;5011646;28;20255;-66
2022/03/04 00:26:50;;;;;;;2.27;1.80;;;0.90;99.90;;;;;;5012008;28;20218;-66
2022/03/04 00:29:16;;;;;;;4.57;3.70;;;0.90;99.90;;;;;;5011742;28;20595;-66
2022/03/04 00:31:42;;;;;;;3.00;2.80;;;0.90;99.90;;;;;;5011663;28;20220;-66
2022/03/04 00:34:08;;;;;;;2.60;2.40;;;0.90;99.90;;;;;;5011752;28;20949;-67
2022/03/04 00:36:38;;;;;;;2.97;2.77;;;0.80;99.90;;;;;;5011730;28;20175;-68
2022/03/04 00:39:06;;;;;;;4.10;2.50;;;0.90;99.90;;;;;;5011595;28;20443;-66
2022/03/04 00:41:31;;;;;;;3.60;2.77;;;0.90;99.90;;;;;;5011390;28;20429;-66
2022/03/04 00:43:57;;;;;;;9.67;3.53;;;0.90;99.90;;;;;;5011418;28;20467;-67
2022/03/04 00:46:23;;;;;;;3.97;3.57;;;0.90;99.90;;;;;;5011427;28;20242;-66
2022/03/04 00:48:49;;;;;;;3.70;3.40;;;0.90;99.90;;;;;;5011409;28;20173;-66
2022/03/04 00:51:15;;;;;;;3.10;2.70;;;0.90;99.90;;;;;;5011335;28;20279;-66
2022/03/04 00:53:41;;;;;;;2.80;2.60;;;0.90;99.90;;;;;;5011177;28;20478;-67
2022/03/04 00:56:09;;;;;;;3.97;3.63;;;0.90;99.90;;;;;;5011266;28;20465;-66
2022/03/04 00:58:35;;;;;;;3.97;3.47;;;0.90;99.90;;;;;;5011194;28;20430;-66
2022/03/04 01:01:01;;;;;;;2.27;2.10;;;0.90;99.90;;;;;;5011101;28;20458;-67
2022/03/04 01:03:27;;;;;;;3.07;2.40;;;0.90;99.90;;;;;;5011440;28;20916;-66
2022/03/04 01:05:53;;;;;;;7.27;3.43;;;0.90;99.90;;;;;;5011270;28;20455;-66
2022/03/04 01:08:18;;;;;;;5.47;2.87;;;1.00;99.90;;;;;;5011263;28;20226;-66
2022/03/04 01:10:44;;;;;;;4.47;3.70;;;1.00;99.90;;;;;;5011555;28;20188;-66
2022/03/04 01:13:10;;;;;;;3.13;2.00;;;0.90;99.90;;;;;;5014838;28;20532;-66
2022/03/04 01:15:36;;;;;;;3.80;2.73;;;0.90;99.90;;;;;;5014923;28;20411;-66
2022/03/04 01:18:02;;;;;;;4.27;2.73;;;0.90;99.90;;;;;;5015067;28;20166;-67
2022/03/04 01:20:28;;;;;;;4.60;3.17;;;0.80;99.90;;;;;;5014972;28;20431;-67
2022/03/04 01:22:54;;;;;;;4.90;4.50;;;0.90;99.90;;;;;;5015294;28;20411;-66
2022/03/04 01:25:19;;;;;;;4.63;3.40;;;0.90;99.90;;;;;;5015325;28;20747;-66
2022/03/04 01:27:45;;;;;;;7.87;3.73;;;0.90;99.90;;;;;;5014907;28;20169;-66
2022/03/04 01:30:10;;;;;;;6.07;3.03;;;0.90;99.90;;;;;;5014820;28;20172;-66
2022/03/04 01:32:37;;;;;;;8.03;4.17;;;0.90;99.90;;;;;;5014691;28;20247;-66
2022/03/04 01:35:03;;;;;;;7.97;5.50;;;0.90;99.90;;;;;;5014737;28;20176;-66
2022/03/04 01:37:29;;;;;;;6.10;4.73;;;1.00;99.90;;;;;;5014689;28;20407;-65
2022/03/04 01:39:55;;;;;;;4.27;3.97;;;1.00;99.90;;;;;;5014492;28;20465;-65
2022/03/04 01:42:20;;;;;;;8.20;5.77;;;1.00;99.90;;;;;;5014130;28;21019;-66
2022/03/04 01:44:46;;;;;;;7.77;3.47;;;1.00;99.90;;;;;;5014260;28;20493;-65
2022/03/04 01:47:12;;;;;;;5.20;3.90;;;1.00;99.90;;;;;;5014357;28;20172;-66
2022/03/04 01:49:40;;;;;;;12.40;5.50;;;1.00;99.90;;;;;;5014419;28;20411;-67
2022/03/04 01:52:07;;;;;;;10.87;4.97;;;1.00;99.90;;;;;;5014194;28;20192;-66
2022/03/04 01:54:33;;;;;;;11.50;5.67;;;1.00;99.90;;;;;;5014244;28;20411;-66
2022/03/04 01:56:59;;;;;;;6.53;3.97;;;1.00;99.90;;;;;;5014307;28;20415;-66
2022/03/04 01:59:24;;;;;;;10.40;3.90;;;1.00;99.90;;;;;;5014218;28;20682;-66
2022/03/04 02:01:52;;;;;;;5.07;3.40;;;1.00;99.90;;;;;;5014064;28;20214;-66
2022/03/04 02:04:22;;;;;;;5.33;4.30;;;1.00;99.90;;;;;;5014185;28;20176;-67
2022/03/04 02:06:48;;;;;;;7.60;4.43;;;1.00;99.90;;;;;;5014117;28;20416;-67
2022/03/04 02:09:13;;;;;;;12.37;3.73;;;1.00;99.90;;;;;;5014121;28;20770;-67
2022/03/04 02:11:41;;;;;;;6.93;3.57;;;1.00;99.90;;;;;;5013911;28;20734;-67
2022/03/04 02:14:07;;;;;;;8.87;3.20;;;1.10;99.90;;;;;;5014130;28;20622;-66
2022/03/04 02:16:42;;;;;;;4.13;3.83;;;1.10;99.90;;;;;;5012571;28;20410;-66
2022/03/04 02:19:08;;;;;;;12.30;3.57;;;1.10;99.90;;;;;;5014018;28;20170;-66
2022/03/04 02:21:33;;;;;;;8.00;5.13;;;1.10;99.90;;;;;;5013865;28;20420;-66
2022/03/04 02:23:59;;;;;;;9.97;4.93;;;1.10;99.90;;;;;;5013044;28;20173;-66
2022/03/04 02:26:24;;;;;;;17.60;5.07;;;1.10;99.90;;;;;;5013690;28;20247;-67
2022/03/04 02:28:50;;;;;;;13.93;5.90;;;1.20;99.90;;;;;;5013868;28;20176;-66
2022/03/04 02:31:17;;;;;;;16.07;3.10;;;1.10;99.90;;;;;;5013694;28;20306;-67
2022/03/04 02:33:44;;;;;;;3.47;3.23;;;1.10;99.90;;;;;;5013478;28;20451;-67
2022/03/04 02:36:10;;;;;;;7.20;3.33;;;1.20;99.90;;;;;;5013442;28;20439;-67
2022/03/04 02:38:36;;;;;;;4.57;3.90;;;1.10;99.90;;;;;;5013698;28;20765;-66
2022/03/04 02:41:01;;;;;;;6.17;3.20;;;1.20;99.90;;;;;;5013588;28;20442;-66
2022/03/04 02:43:27;;;;;;;17.90;3.70;;;1.10;99.90;;;;;;5013439;28;20181;-67
2022/03/04 02:45:52;;;;;;;2.20;2.10;;;1.10;99.90;;;;;;5013382;28;20615;-66
2022/03/04 02:48:18;;;;;;;3.60;2.90;;;1.20;99.90;;;;;;5013369;28;20176;-66
2022/03/04 02:50:43;;;;;;;2.83;2.63;;;1.20;99.90;;;;;;5013480;28;20191;-66
2022/03/04 02:53:09;;;;;;;5.90;1.93;;;1.20;99.90;;;;;;5013254;28;20207;-66
2022/03/04 02:55:34;;;;;;;5.77;4.77;;;1.20;99.90;;;;;;5013457;28;20702;-66
2022/03/04 02:58:00;;;;;;;14.43;2.90;;;1.30;99.90;;;;;;5013429;28;20183;-67
2022/03/04 03:00:25;;;;;;;7.53;3.47;;;1.20;99.90;;;;;;5013101;28;20196;-66
2022/03/04 03:02:51;;;;;;;5.37;3.00;;;1.30;99.90;;;;;;5013809;28;20260;-67
2022/03/04 03:05:17;;;;;;;3.20;2.50;;;1.30;99.90;;;;;;5013232;28;20196;-67
2022/03/04 03:07:42;;;;;;;3.97;3.17;;;1.30;99.90;;;;;;5012978;28;20168;-67
2022/03/04 03:10:09;;;;;;;6.53;3.93;;;1.30;99.90;;;;;;5013225;28;20179;-67
2022/03/04 03:12:35;;;;;;;7.03;3.67;;;1.40;99.90;;;;;;5012799;28;20188;-67
2022/03/04 03:15:00;;;;;;;3.97;2.50;;;1.40;99.90;;;;;;5012909;28;20402;-67
2022/03/04 03:17:26;;;;;;;6.10;2.97;;;1.40;99.90;;;;;;5013016;28;20403;-67
2022/03/04 03:19:51;;;;;;;6.53;3.07;;;1.50;99.90;;;;;;5013222;28;20179;-67
2022/03/04 03:22:18;;;;;;;3.73;2.30;;;1.40;99.90;;;;;;5013404;28;20211;-67
2022/03/04 03:24:44;;;;;;;6.70;2.37;;;1.50;99.90;;;;;;5012847;28;20173;-67
2022/03/04 03:27:10;;;;;;;7.33;2.20;;;1.50;99.90;;;;;;5012713;28;20767;-67
2022/03/04 03:29:36;;;;;;;2.40;2.03;;;1.50;99.90;;;;;;4995212;28;20503;-67
2022/03/04 03:32:01;;;;;;;5.80;2.50;;;1.50;99.90;;;;;;5012327;28;20286;-67
2022/03/04 03:34:27;;;;;;;1.83;1.73;;;1.50;99.90;;;;;;5012459;28;20949;-67
2022/03/04 03:36:52;;;;;;;2.63;1.93;;;1.50;99.90;;;;;;5012643;28;20180;-67
2022/03/04 03:39:18;;;;;;;3.30;2.50;;;1.60;99.90;;;;;;5012838;28;20242;-67
2022/03/04 03:41:43;;;;;;;5.00;2.23;;;1.60;99.90;;;;;;5012469;28;20655;-67
2022/03/04 03:44:09;;;;;;;3.13;2.80;;;1.60;99.90;;;;;;5012410;28;20534;-67
2022/03/04 03:46:34;;;;;;;3.30;3.00;;;1.60;99.90;;;;;;5012114;28;20643;-67
2022/03/04 03:49:00;;;;;;;5.80;4.13;;;1.60;99.90;;;;;;5012277;28;20169;-67
2022/03/04 03:51:25;;;;;;;3.27;2.57;;;1.70;99.90;;;;;;5012150;28;20283;-67
2022/03/04 03:53:51;;;;;;;5.33;3.10;;;1.70;99.90;;;;;;5012017;28;20274;-67
2022/03/04 03:56:16;;;;;;;6.60;3.20;;;1.70;99.90;;;;;;5012158;28;20176;-67
2022/03/04 03:58:41;;;;;;;5.50;3.33;;;1.70;99.90;;;;;;5012112;28;20712;-67
2022/03/04 04:01:07;;;;;;;7.30;5.63;;;1.70;99.90;;;;;;5011885;28;20199;-67
2022/03/04 04:03:32;;;;;;;12.00;5.47;;;1.70;99.90;;;;;;5011955;28;20187;-66
2022/03/04 04:05:58;;;;;;;4.07;2.40;;;1.80;99.90;;;;;;5011922;28;20172;-67
2022/03/04 04:08:23;;;;;;;10.47;4.67;;;1.80;99.90;;;;;;5012025;28;20172;-67
2022/03/04 04:10:49;;;;;;;3.57;2.87;;;1.80;99.90;;;;;;5011835;28;20192;-67
2022/03/04 04:13:15;;;;;;;3.17;2.87;;;1.80;99.90;;;;;;5011759;28;20200;-67
2022/03/04 04:15:40;;;;;;;6.13;4.47;;;1.80;99.90;;;;;;5011626;28;20176;-67
2022/03/04 04:18:06;;;;;;;6.63;3.53;;;1.80;99.90;;;;;;4994192;28;20168;-67
2022/03/04 04:20:31;;;;;;;19.00;3.70;;;1.80;99.90;;;;;;4994039;28;20553;-67
2022/03/04 04:22:57;;;;;;;4.57;2.93;;;1.80;99.90;;;;;;5011888;28;20172;-68
2022/03/04 04:25:22;;;;;;;5.30;3.77;;;1.80;99.90;;;;;;5011513;28;20662;-67
2022/03/04 04:27:48;;;;;;;5.03;2.70;;;1.80;99.90;;;;;;5011718;28;20180;-67
2022/03/04 04:30:13;;;;;;;5.90;3.83;;;1.90;99.90;;;;;;5011615;28;20200;-68
2022/03/04 04:32:39;;;;;;;5.77;4.17;;;1.90;99.90;;;;;;5011519;28;20732;-67
2022/03/04 04:35:05;;;;;;;5.50;3.10;;;1.90;99.90;;;;;;5011550;28;20168;-67
2022/03/04 04:37:31;;;;;;;3.77;3.10;;;1.90;99.90;;;;;;5011540;28;20176;-67
2022/03/04 04:39:57;;;;;;;3.50;3.20;;;1.90;99.90;;;;;;5011500;28;20847;-67
2022/03/04 04:42:22;;;;;;;5.20;3.37;;;1.90;99.90;;;;;;5011339;28;20215;-67
2022/03/04 04:44:48;;;;;;;6.10;3.27;;;2.00;99.90;;;;;;5011360;28;20399;-67
2022/03/04 04:47:14;;;;;;;6.03;3.83;;;2.00;99.90;;;;;;5011083;28;20180;-67
2022/03/04 04:49:39;;;;;;;6.20;4.50;;;2.00;99.90;;;;;;5011505;28;20255;-67
2022/03/04 04:52:06;;;;;;;7.90;2.87;;;2.00;99.90;;;;;;5011547;28;20188;-67
2022/03/04 04:54:32;;;;;;;9.60;3.53;;;2.00;99.90;;;;;;5011245;28;20178;-67
2022/03/04 04:56:57;;;;;;;5.17;4.73;;;1.90;99.90;;;;;;5011390;28;20775;-67
2022/03/04 04:59:23;;;;;;;6.20;3.53;;;1.90;99.90;;;;;;5011215;28;20411;-67
2022/03/04 05:01:48;;;;;;;6.80;4.00;;;2.00;99.90;;;;;;5011290;28;20603;-67
2022/03/04 05:04:14;;;;;;;5.40;3.50;;;2.00;99.90;;;;;;5011374;28;20661;-66
2022/03/04 05:06:40;;;;;;;4.30;2.50;;;2.00;99.90;;;;;;5011274;28;20168;-67
2022/03/04 05:09:05;;;;;;;3.90;3.47;;;2.00;99.90;;;;;;5009656;28;20432;-67
2022/03/04 05:11:31;;;;;;;8.53;4.30;;;1.90;99.90;;;;;;5010849;28;20582;-67
2022/03/04 05:13:56;;;;;;;5.33;3.07;;;1.90;99.90;;;;;;5009654;28;20192;-68
2022/03/04 05:16:22;;;;;;;5.37;3.60;;;1.80;99.90;;;;;;5010931;28;20643;-67
2022/03/04 05:18:47;;;;;;;6.50;2.90;;;1.80;99.90;;;;;;5011302;28;20169;-67
2022/03/04 05:21:13;;;;;;;7.07;3.60;;;1.80;99.90;;;;;;5011138;28;20188;-67
2022/03/04 05:26:22;;;;;;;3.50;2.50;;;1.70;99.90;;;;;;5011150;28;20645;-67
2022/03/04 05:28:48;;;;;;;3.90;3.60;;;1.70;99.90;;;;;;5011098;28;20403;-67
2022/03/04 05:31:13;;;;;;;3.63;2.90;;;1.80;99.90;;;;;;5011048;28;20196;-67
2022/03/04 05:33:39;;;;;;;3.90;2.07;;;1.70;99.90;;;;;;5010902;28;20666;-67
2022/03/04 05:36:04;;;;;;;2.10;1.90;;;1.80;99.90;;;;;;5010786;28;20698;-67
2022/03/04 05:38:30;;;;;;;3.77;2.57;;;1.80;99.90;;;;;;4993235;28;20172;-67
2022/03/04 05:40:55;;;;;;;1.90;1.80;;;1.80;99.90;;;;;;5010873;28;20211;-67
2022/03/04 05:43:21;;;;;;;2.40;2.10;;;1.80;99.90;;;;;;4992990;28;20237;-66
2022/03/04 05:45:46;;;;;;;3.50;2.00;;;1.80;99.90;;;;;;5010826;28;20263;-67
2022/03/04 05:48:12;;;;;;;2.30;2.10;;;1.80;99.90;;;;;;5010917;28;20172;-67
2022/03/04 05:50:37;;;;;;;1.70;1.60;;;1.80;99.90;;;;;;5010900;28;20300;-67
2022/03/04 05:53:03;;;;;;;2.53;2.33;;;1.80;99.90;;;;;;5010817;28;20658;-67
2022/03/04 05:55:29;;;;;;;1.77;1.67;;;1.80;99.90;;;;;;5011104;28;20167;-67
2022/03/04 05:57:54;;;;;;;3.83;1.50;;;1.80;99.90;;;;;;5011477;28;20430;-67
2022/03/04 06:00:20;;;;;;;5.40;2.10;;;1.70;99.90;;;;;;5014200;28;20251;-67
2022/03/04 06:02:45;;;;;;;4.80;2.20;;;1.80;99.90;;;;;;5014145;28;20179;-67
2022/03/04 06:05:11;;;;;;;1.57;1.47;;;1.80;99.90;;;;;;5014175;28;20168;-67
2022/03/04 06:07:36;;;;;;;1.97;1.47;;;1.90;99.90;;;;;;5014083;28;20291;-67
2022/03/04 06:10:03;;;;;;;2.13;1.93;;;1.90;99.90;;;;;;5014234;28;20180;-67
2022/03/04 06:12:28;;;;;;;2.00;1.90;;;1.90;99.90;;;;;;5013984;28;20214;-67
2022/03/04 06:14:53;;;;;;;2.80;2.03;;;1.90;99.90;;;;;;5014026;28;20514;-67
2022/03/04 06:17:19;;;;;;;2.10;1.97;;;2.00;99.90;;;;;;5005282;28;20176;-67
2022/03/04 06:19:44;;;;;;;4.67;2.60;;;2.00;99.90;;;;;;5013837;28;20191;-67
2022/03/04 06:22:10;;;;;;;2.90;2.07;;;2.00;99.90;;;;;;5013585;28;20228;-67
2022/03/04 06:24:37;;;;;;;2.40;2.20;;;2.00;99.90;;;;;;5014199;28;20705;-67
2022/03/04 06:27:03;;;;;;;3.37;2.00;;;2.00;99.90;;;;;;5013747;28;20465;-67
2022/03/04 06:29:28;;;;;;;4.30;2.10;;;1.90;99.90;;;;;;5013761;28;20909;-68
2022/03/04 06:31:54;;;;;;;3.93;2.90;;;2.00;99.90;;;;;;5013787;28;20427;-67
2022/03/04 06:34:20;;;;;;;2.63;1.80;;;2.10;99.90;;;;;;5013800;28;20192;-68
2022/03/04 06:36:45;;;;;;;1.57;1.47;;;2.10;99.90;;;;;;5013784;28;20446;-68
2022/03/04 06:39:10;;;;;;;3.97;2.03;;;2.10;99.90;;;;;;5013707;28;20173;-67
2022/03/04 06:41:37;;;;;;;2.00;1.67;;;2.10;99.90;;;;;;5013391;28;20191;-68
2022/03/04 06:44:03;;;;;;;1.50;1.13;;;2.20;99.90;;;;;;5013582;28;20578;-68
2022/03/04 06:46:29;;;;;;;4.17;2.27;;;2.20;99.90;;;;;;5013535;28;20403;-66
2022/03/04 06:48:54;;;;;;;3.33;2.27;;;2.10;99.90;;;;;;5013295;28;20419;-66
2022/03/04 06:51:20;;;;;;;4.80;1.90;;;2.20;99.90;;;;;;5013425;28;20282;-66
2022/03/04 06:53:45;;;;;;;1.70;1.60;;;2.20;99.90;;;;;;5013239;28;20201;-68
2022/03/04 06:56:11;;;;;;;5.73;2.50;;;2.30;99.90;;;;;;5013952;28;20645;-67
2022/03/04 06:58:36;;;;;;;2.07;1.87;;;2.30;99.90;;;;;;5013437;28;20218;-67
2022/03/04 07:01:03;;;;;;;4.27;1.90;;;2.40;99.90;;;;;;5013467;28;20223;-67
2022/03/04 07:03:28;;;;;;;2.40;2.30;;;2.40;99.90;;;;;;5013485;28;20270;-67
2022/03/04 07:05:54;;;;;;;1.73;1.63;;;2.30;99.90;;;;;;5013658;28;20449;-67
2022/03/04 07:08:19;;;;;;;1.80;1.70;;;2.30;99.90;;;;;;5014513;28;20287;-67
2022/03/04 07:10:45;;;;;;;1.57;1.47;;;2.30;99.90;;;;;;5014213;28;20188;-67
2022/03/04 07:13:11;;;;;;;4.70;1.80;;;2.30;99.90;;;;;;5014122;28;20215;-67
2022/03/04 07:15:38;;;;;;;7.23;1.73;;;2.20;99.90;;;;;;5013489;28;20713;-68
2022/03/04 07:18:04;;;;;;;2.03;1.80;;;2.20;99.90;;;;;;5013587;28;20403;-67
2022/03/04 07:20:30;;;;;;;2.30;2.10;;;2.30;99.90;;;;;;5013092;28;21000;-67
2022/03/04 07:22:55;;;;;;;4.10;1.43;;;2.40;99.90;;;;;;5013156;28;20275;-67
2022/03/04 07:25:21;;;;;;;1.77;1.67;;;2.50;99.90;;;;;;5012660;28;20187;-67
2022/03/04 07:27:46;;;;;;;1.73;1.43;;;2.50;99.90;;;;;;5012523;28;20176;-66
2022/03/04 07:30:14;;;;;;;1.40;1.30;;;2.60;99.90;;;;;;5012637;28;20182;-66
2022/03/04 07:32:40;;;;;;;2.03;1.57;;;2.50;99.90;;;;;;5012342;28;20200;-66
2022/03/04 07:35:07;;;;;;;3.00;1.33;;;2.60;99.90;;;;;;5012647;28;20763;-67
2022/03/04 07:37:37;;;;;;;1.33;1.30;;;2.60;99.90;;;;;;5012556;28;20410;-67
2022/03/04 07:40:07;;;;;;;4.57;1.90;;;2.60;99.90;;;;;;5012082;28;20419;-68
2022/03/04 07:42:33;;;;;;;2.53;1.73;;;2.60;99.90;;;;;;5012218;28;20510;-67
2022/03/04 07:44:59;;;;;;;3.80;2.53;;;2.60;99.90;;;;;;5012226;28;20510;-67
2022/03/04 07:47:25;;;;;;;4.20;2.30;;;2.60;99.90;;;;;;5012460;28;20670;-67
2022/03/04 07:49:50;;;;;;;1.77;1.67;;;2.60;99.90;;;;;;5012304;28;20540;-67
2022/03/04 07:52:16;;;;;;;3.63;1.63;;;2.60;99.90;;;;;;5012085;28;20449;-68
2022/03/04 07:54:42;;;;;;;2.60;1.73;;;2.60;99.90;;;;;;5012588;28;20314;-67
2022/03/04 07:57:07;;;;;;;2.13;1.43;;;2.60;99.90;;;;;;5012427;28;20172;-67
2022/03/04 07:59:33;;;;;;;3.33;1.60;;;2.60;99.90;;;;;;5012195;28;20169;-67
2022/03/04 08:01:58;;;;;;;2.10;1.60;;;2.70;99.90;;;;;;5012051;28;20282;-67
2022/03/04 08:04:24;;;;;;;1.37;1.20;;;2.80;99.90;;;;;;5012224;28;20649;-67
2022/03/04 08:06:49;;;;;;;3.47;2.00;;;2.90;99.90;;;;;;5012030;28;20175;-67
2022/03/04 08:09:15;;;;;;;1.90;1.80;;;3.00;99.90;;;;;;5011960;28;20651;-67
2022/03/04 08:11:40;;;;;;;1.30;1.20;;;2.90;99.90;;;;;;5011780;28;20542;-67
2022/03/04 08:14:06;;;;;;;8.43;2.20;;;2.90;99.90;;;;;;5012045;28;20641;-67
2022/03/04 08:16:33;;;;;;;2.73;2.50;;;2.90;99.90;;;;;;5011854;28;20530;-67
2022/03/04 08:18:58;;;;;;;3.60;2.47;;;3.00;99.90;;;;;;5012018;28;20172;-67
2022/03/04 08:21:25;;;;;;;2.70;2.20;;;3.10;99.90;;;;;;5010793;28;20433;-67
2022/03/04 08:23:50;;;;;;;4.20;1.77;;;3.10;99.90;;;;;;5011672;28;20228;-67
2022/03/04 08:26:16;;;;;;;2.00;1.23;;;3.00;99.90;;;;;;5011687;28;20897;-67
2022/03/04 08:28:41;;;;;;;2.20;2.00;;;3.00;99.90;;;;;;5011884;28;20713;-67
2022/03/04 08:31:13;;;;;;;7.43;2.30;;;3.10;99.90;;;;;;5011563;28;20575;-67
2022/03/04 08:33:40;;;;;;;3.83;2.43;;;3.00;99.90;;;;;;5011620;28;20243;-67
2022/03/04 08:36:06;;;;;;;2.47;1.83;;;3.10;99.90;;;;;;5011369;28;20465;-68
2022/03/04 08:38:33;;;;;;;2.50;2.00;;;3.00;99.90;;;;;;5011472;28;20493;-68
2022/03/04 08:40:59;;;;;;;1.57;1.47;;;3.00;99.90;;;;;;5011520;28;20184;-68
2022/03/04 08:43:25;;;;;;;1.67;1.50;;;3.00;99.90;;;;;;4994049;28;20807;-68
2022/03/04 08:45:50;;;;;;;7.00;3.50;;;3.00;99.90;;;;;;5011306;28;20662;-66
2022/03/04 08:48:16;;;;;;;4.93;2.07;;;2.90;99.90;;;;;;5011398;28;20184;-68
2022/03/04 08:50:41;;;;;;;1.67;1.57;;;2.90;99.90;;;;;;5011145;28;20557;-66
2022/03/04 08:53:07;;;;;;;2.10;2.00;;;2.90;99.90;;;;;;5011273;28;20208;-66
2022/03/04 08:55:32;;;;;;;2.37;1.33;;;2.90;99.90;;;;;;5011398;28;20617;-66
2022/03/04 08:58:00;;;;;;;2.63;1.80;;;2.90;99.90;;;;;;5011254;28;20588;-66
2022/03/04 09:00:27;;;;;;;3.80;2.87;;;2.90;99.90;;;;;;5011150;28;20208;-66
2022/03/04 09:02:52;;;;;;;5.10;2.00;;;3.00;99.90;;;;;;5011657;28;20407;-67
2022/03/04 09:05:18;;;;;;;2.10;1.53;;;3.00;99.90;;;;;;5010818;28;20470;-68
2022/03/04 09:07:43;;;;;;;1.83;1.53;;;3.10;99.90;;;;;;5011068;28;20176;-67
2022/03/04 09:10:10;;;;;;;1.67;1.20;;;3.10;99.90;;;;;;5011095;28;20260;-67
2022/03/04 09:12:35;;;;;;;1.90;1.30;;;3.30;99.90;;;;;;5011032;28;20223;-67
2022/03/04 09:15:01;;;;;;;2.40;1.13;;;3.40;99.90;;;;;;5011078;28;20435;-67
2022/03/04 09:17:27;;;;;;;1.33;1.23;;;3.40;99.90;;;;;;5010998;28;20168;-68
2022/03/04 09:19:52;;;;;;;7.07;2.20;;;3.40;99.90;;;;;;5010727;28;20172;-68
2022/03/04 09:22:18;;;;;;;3.20;1.40;;;3.50;99.90;;;;;;4993375;28;20555;-67
2022/03/04 09:24:43;;;;;;;1.83;1.60;;;3.70;99.90;;;;;;5011096;28;20226;-67
2022/03/04 09:27:10;;;;;;;1.17;1.07;;;3.80;99.90;;;;;;5011038;28;20176;-68
2022/03/04 09:29:35;;;;;;;3.63;1.60;;;3.80;99.90;;;;;;5010988;28;20400;-68
2022/03/04 09:32:01;;;;;;;1.73;1.63;;;3.90;99.90;;;;;;5011568;28;20797;-68
2022/03/04 09:34:26;;;;;;;1.57;1.47;;;3.90;99.90;;;;;;5014331;28;20176;-67
2022/03/04 09:36:52;;;;;;;1.67;1.53;;;4.10;99.90;;;;;;5014606;28;20203;-68
2022/03/04 09:39:17;;;;;;;3.63;1.50;;;4.20;99.90;;;;;;5014659;28;20256;-68
2022/03/04 09:41:45;;;;;;;1.70;1.60;;;4.30;99.90;;;;;;5014555;28;20261;-67
2022/03/04 09:44:12;;;;;;;2.13;1.43;;;4.50;99.90;;;;;;5014682;28;20180;-68
2022/03/04 09:46:40;;;;;;;1.83;1.47;;;4.50;99.90;;;;;;5014530;28;20399;-67
2022/03/04 09:49:07;;;;;;;1.50;1.40;;;4.70;99.90;;;;;;5014276;28;20426;-68
2022/03/04 09:51:33;;;;;;;3.27;1.33;;;4.60;99.90;;;;;;5014393;28;20446;-67
2022/03/04 09:53:58;;;;;;;2.30;1.70;;;4.90;99.90;;;;;;5014010;28;20463;-68
2022/03/04 09:56:24;;;;;;;1.37;1.27;;;4.60;99.90;;;;;;5014071;28;20176;-67
2022/03/04 09:58:49;;;;;;;1.23;1.13;;;4.50;99.90;;;;;;5014351;28;20179;-68
2022/03/04 10:01:16;;;;;;;4.50;1.57;;;4.50;99.90;;;;;;5014550;28;20298;-68
2022/03/04 10:03:46;;;;;;;5.33;2.10;;;4.40;99.90;;;;;;5014195;28;20382;-67
2022/03/04 10:06:13;;;;;;;2.53;2.10;;;4.40;99.90;;;;;;5014063;28;20471;-68
2022/03/04 10:08:40;;;;;;;1.60;1.50;;;4.30;99.90;;;;;;5014151;28;20502;-68
2022/03/04 10:11:07;;;;;;;4.50;1.40;;;4.40;99.90;;;;;;5014159;28;20431;-68
2022/03/04 10:13:47;;;;;;;2.07;1.93;;;4.40;99.90;;;;;;5014259;28;20470;-67
2022/03/04 10:16:22;;;;;;;5.17;1.70;;;4.50;99.90;;;;;;5013770;28;20933;-67
2022/03/04 10:19:06;;;;;;;1.43;1.33;;;4.50;99.90;;;;;;5014274;28;20415;-68
2022/03/04 10:21:55;;;;;;;2.60;1.73;;;4.30;99.90;;;;;;5011354;28;20462;-67
2022/03/04 10:24:27;;;;;;;1.73;1.63;;;4.10;99.90;;;;;;5012627;28;20454;-68
2022/03/04 10:27:04;;;;;;;2.50;2.13;;;4.20;99.90;;;;;;5013863;28;20448;-68
2022/03/04 10:29:32;;;;;;;3.30;2.80;;;4.10;99.90;;;;;;5013722;28;20418;-68
2022/03/04 10:32:13;;;;;;;3.10;2.30;;;4.00;99.90;;;;;;5013532;28;20435;-67
2022/03/04 10:34:46;;;;;;;2.40;2.20;;;3.90;99.90;;;;;;5013618;28;20804;-68
2022/03/04 10:37:13;;;;;;;2.70;1.73;;;4.10;99.90;;;;;;5013575;28;20439;-67
2022/03/04 10:40:03;;;;;;;2.40;1.77;;;4.00;99.90;;;;;;5013537;28;20403;-68
2022/03/04 10:42:42;;;;;;;2.53;2.33;;;4.10;99.90;;;;;;5013314;28;20411;-68
2022/03/04 10:45:10;;;;;;;3.80;2.50;;;4.10;99.90;;;;;;5012949;28;20411;-68
2022/03/04 10:47:56;;;;;;;2.63;2.43;;;4.20;99.90;;;;;;4996463;28;20415;-68
2022/03/04 10:50:28;;;;;;;2.27;2.07;;;4.40;99.90;;;;;;5013452;28;20445;-68
2022/03/04 10:53:23;;;;;;;3.47;2.57;;;4.40;99.90;;;;;;5013366;28;20813;-69
2022/03/04 10:56:02;;;;;;;2.43;2.30;;;4.20;99.90;;;;;;5006033;28;20431;-69
2022/03/04 10:58:29;;;;;;;3.40;3.10;;;4.20;99.90;;;;;;5014173;28;20842;-69
2022/03/04 11:01:18;;;;;;;2.30;2.10;;;4.30;99.90;;;;;;5014334;28;20462;-69
2022/03/04 11:03:44;;;;;;;3.63;3.33;;;4.40;99.90;;;;;;5014069;28;20745;-68
2022/03/04 11:06:11;;;;;;;2.37;2.10;;;4.40;99.90;;;;;;4995270;28;20419;-68
2022/03/04 11:08:37;;;;;;;3.47;2.50;;;4.30;99.90;;;;;;5013059;28;20411;-68
2022/03/04 11:11:04;;;;;;;2.47;2.30;;;4.50;99.90;;;;;;5013017;28;20772;-68
2022/03/04 11:13:32;;;;;;;3.57;3.27;;;4.50;99.90;;;;;;5012890;28;20549;-68
2022/03/04 11:15:57;;;;;;;2.37;1.73;;;4.40;99.90;;;;;;5012946;28;20409;-69
2022/03/04 11:18:24;;;;;;;4.20;2.50;;;4.60;99.90;;;;;;5013038;28;20407;-68
2022/03/04 11:20:55;;;;;;;3.00;2.77;;;4.60;99.90;;;;;;5012756;28;20207;-68
2022/03/04 11:23:23;;;;;;;5.00;2.60;;;4.70;99.90;;;;;;5013064;28;20447;-68
2022/03/04 11:25:56;;;;;;;3.40;3.10;;;4.80;99.90;;;;;;5012702;28;20419;-69
2022/03/04 11:28:33;;;;;;;3.57;3.27;;;4.80;99.90;;;;;;5013995;28;20423;-68
2022/03/04 11:31:01;;;;;;;3.70;2.30;;;4.70;99.90;;;;;;5013355;28;20449;-68
2022/03/04 11:33:36;;;;;;;3.53;2.67;;;4.70;99.90;;;;;;5012466;28;20451;-68
2022/03/04 11:36:16;;;;;;;4.40;3.30;;;4.70;99.90;;;;;;5012531;28;20781;-68
2022/03/04 11:38:47;;;;;;;2.90;2.50;;;4.80;99.90;;;;;;5012435;28;20415;-68
2022/03/04 11:41:31;;;;;;;6.20;3.20;;;4.90;99.90;;;;;;5012230;28;20988;-68
2022/03/04 11:44:19;;;;;;;3.20;2.90;;;5.10;99.90;;;;;;4994698;28;20430;-68
2022/03/04 11:46:58;;;;;;;2.60;2.40;;;5.20;99.90;;;;;;5012270;28;20407;-66
2022/03/04 11:49:33;;;;;;;3.97;3.10;;;5.30;99.90;;;;;;5012416;28;20415;-67
2022/03/04 11:52:07;;;;;;;3.67;3.20;;;5.10;99.90;;;;;;5012280;28;20535;-67
2022/03/04 11:54:34;;;;;;;3.10;2.73;;;5.10;99.90;;;;;;5012270;28;20486;-67
2022/03/04 11:56:59;;;;;;;4.90;3.03;;;5.20;99.90;;;;;;5011443;28;20458;-67
2022/03/04 11:59:25;;;;;;;3.07;2.80;;;5.20;99.90;;;;;;5012156;28;20404;-68
2022/03/04 12:01:51;;;;;;;2.77;2.50;;;5.20;99.90;;;;;;5011960;28;20200;-68
2022/03/04 12:04:18;;;;;;;3.10;2.80;;;5.30;99.90;;;;;;5011976;28;20407;-67
2022/03/04 12:07:04;;;;;;;3.83;3.53;;;5.40;99.90;;;;;;5012469;28;20255;-67
2022/03/04 12:09:32;;;;;;;2.77;2.53;;;5.20;99.90;;;;;;4992448;28;20420;-68
2022/03/04 12:12:24;;;;;;;2.20;2.10;;;5.30;99.90;;;;;;4992230;28;20442;-67
2022/03/04 12:15:12;;;;;;;2.90;2.17;;;5.20;99.90;;;;;;4992039;28;20466;-68
2022/03/04 12:17:52;;;;;;;2.13;1.80;;;5.10;99.90;;;;;;4991661;28;20428;-69
2022/03/04 12:20:28;;;;;;;2.33;2.00;;;5.30;99.90;;;;;;4974829;28;20558;-68
2022/03/04 12:22:58;;;;;;;2.20;1.87;;;5.30;99.90;;;;;;5000385;28;20780;-69
2022/03/04 12:25:53;;;;;;;2.37;1.40;;;5.40;99.90;;;;;;4993949;28;20406;-67
2022/03/04 12:28:44;;;;;;;2.53;1.60;;;5.40;99.90;;;;;;5012631;28;20485;-67
2022/03/04 12:31:12;;;;;;;1.83;1.70;;;5.40;99.90;;;;;;5031723;28;20493;-67
2022/03/04 12:33:40;;;;;;;5.67;2.00;;;5.50;99.90;;;;;;5021984;28;20511;-67
2022/03/04 12:36:12;;;;;;;2.10;1.93;;;5.50;99.90;;;;;;5011764;28;20407;-67
2022/03/04 12:38:49;;;;;;;2.23;2.03;;;5.40;99.90;;;;;;5011862;28;20949;-66
2022/03/04 12:41:17;;;;;;;1.90;1.80;;;5.50;99.90;;;;;;5011645;28;20411;-67
2022/03/04 12:43:43;;;;;;;1.80;1.70;;;5.50;99.90;;;;;;5011283;28;20433;-67
2022/03/04 12:46:09;;;;;;;2.10;2.00;;;5.60;99.90;;;;;;4993629;28;20481;-67
2022/03/04 12:48:35;;;;;;;1.70;1.60;;;5.50;99.90;;;;;;5011643;28;20509;-67
2022/03/04 12:51:00;;;;;;;1.90;1.80;;;5.40;99.90;;;;;;5011471;28;20198;-67
2022/03/04 12:53:31;;;;;;;1.40;1.30;;;5.50;99.90;;;;;;5010849;28;20976;-66
2022/03/04 12:56:01;;;;;;;1.57;1.47;;;5.40;99.90;;;;;;4993748;28;20174;-67
2022/03/04 12:58:59;;;;;;;2.83;2.63;;;5.30;99.90;;;;;;5011222;28;20404;-67
2022/03/04 13:01:26;;;;;;;1.63;1.53;;;5.40;99.90;;;;;;4999676;28;20461;-68